createdAt,value
2019-04-26T00:01:26.987Z,54.80
2019-04-26T00:03:57.550Z,54.75
2019-04-26T00:06:28.288Z,54.26
2019-04-26T00:09:15.812Z,54.03
2019-04-26T00:12:07.941Z,54.08
2019-04-26T00:14:56.218Z,54.92
2019-04-26T00:17:44.109Z,55.14
2019-04-26T00:20:15.034Z,55.42
2019-04-26T00:22:45.607Z,55.16
2019-04-26T00:25:16.524Z,55.74
2019-04-26T00:27:47.056Z,54.64
2019-04-26T00:30:17.620Z,54.83
2019-04-26T00:32:48.072Z,55.66
2019-04-26T00:35:18.571Z,55.57
2019-04-26T00:37:49.034Z,56.01
2019-04-26T00:40:20.356Z,55.64
2019-04-26T00:42:52.256Z,55.62
2019-04-26T00:45:23.921Z,55.25
2019-04-26T00:47:56.111Z,55.37
2019-04-26T00:50:26.585Z,55.19
2019-04-26T00:52:57.747Z,55.51
2019-04-26T00:55:30.227Z,54.29
2019-04-26T00:58:01.599Z,53.70
2019-04-26T01:00:32.138Z,54.20
2019-04-26T01:03:02.715Z,52.88
2019-04-26T01:05:34.896Z,52.98
2019-04-26T01:08:05.427Z,52.24
2019-04-26T01:10:36.173Z,53.80
2019-04-26T01:13:06.646Z,54.09
2019-04-26T01:15:37.539Z,52.49
2019-04-26T01:18:08.109Z,52.18
2019-04-26T01:20:40.842Z,52.84
2019-04-26T01:23:17.379Z,53.23
2019-04-26T01:26:11.998Z,56.10
2019-04-26T01:28:55.165Z,55.42
2019-04-26T01:31:29.253Z,54.19
2019-04-26T01:33:59.786Z,52.31
2019-04-26T01:36:34.206Z,51.95
2019-04-26T01:39:17.535Z,51.94
2019-04-26T01:41:57.220Z,50.44
2019-04-26T01:44:47.977Z,50.00
2019-04-26T01:47:20.047Z,49.63
2019-04-26T01:49:51.584Z,52.06
2019-04-26T01:52:22.845Z,53.95
2019-04-26T01:54:54.292Z,54.27
2019-04-26T01:57:29.892Z,53.43
2019-04-26T02:00:10.746Z,51.86
2019-04-26T02:02:53.916Z,51.82
2019-04-26T02:05:26.296Z,52.83
2019-04-26T02:07:57.119Z,53.64
2019-04-26T02:10:28.696Z,54.01
2019-04-26T02:13:00.074Z,53.95
2019-04-26T02:15:33.885Z,54.58
2019-04-26T02:18:05.261Z,54.23
2019-04-26T02:21:04.239Z,53.19
2019-04-26T02:23:44.637Z,53.60
2019-04-26T02:26:34.638Z,52.82
2019-04-26T02:29:12.899Z,54.01
2019-04-26T02:31:48.028Z,54.91
2019-04-26T02:34:18.481Z,55.59
2019-04-26T02:36:58.056Z,56.54
2019-04-26T02:39:29.358Z,55.71
2019-04-26T02:42:06.309Z,56.33
2019-04-26T02:44:58.092Z,57.03
2019-04-26T02:48:02.229Z,58.38
2019-04-26T02:50:41.879Z,57.56
2019-04-26T02:53:25.255Z,57.06
2019-04-26T02:56:37.676Z,58.66
2019-04-26T02:59:38.162Z,60.00
2019-04-26T03:02:32.290Z,59.90
2019-04-26T03:05:07.775Z,60.22
2019-04-26T03:08:11.658Z,61.41
2019-04-26T03:10:51.805Z,61.70
2019-04-26T03:13:48.955Z,62.84
2019-04-26T03:16:43.068Z,62.85
2019-04-26T03:19:49.424Z,63.64
2019-04-26T03:22:57.510Z,63.55
2019-04-26T03:26:22.355Z,64.14
2019-04-26T03:29:37.632Z,64.64
2019-04-26T03:32:56.825Z,63.38
2019-04-26T03:35:58.257Z,63.77
2019-04-26T03:38:45.276Z,64.40
2019-04-26T03:41:44.313Z,64.93
2019-04-26T03:44:42.827Z,65.51
2019-04-26T03:47:20.526Z,65.81
2019-04-26T03:50:21.508Z,64.40
2019-04-26T03:53:12.945Z,62.87
2019-04-26T03:56:58.473Z,62.58
2019-04-26T03:59:46.716Z,62.17
2019-04-26T04:02:45.721Z,61.79
2019-04-26T04:05:37.262Z,61.67
2019-04-26T04:08:11.313Z,61.70
2019-04-26T04:10:49.632Z,62.30
2019-04-26T04:13:44.193Z,62.71
2019-04-26T04:17:20.850Z,63.67
2019-04-26T04:20:30.038Z,64.07
2019-04-26T04:24:00.962Z,65.06
2019-04-26T04:27:41.949Z,65.75
2019-04-26T04:30:49.412Z,66.48
2019-04-26T04:34:10.181Z,67.00
2019-04-26T04:36:51.899Z,67.68
2019-04-26T04:39:40.830Z,68.41
2019-04-26T04:42:43.410Z,69.04
2019-04-26T04:45:53.040Z,69.45
2019-04-26T04:48:58.362Z,70.09
2019-04-26T04:52:32.434Z,70.91
2019-04-26T04:55:16.578Z,70.79
2019-04-26T04:58:11.325Z,71.09
2019-04-26T05:01:50.858Z,70.92
2019-04-26T05:04:43.753Z,70.98
2019-04-26T05:07:29.940Z,70.98
2019-04-26T05:10:26.192Z,70.20
2019-04-26T05:13:38.050Z,70.31
2019-04-26T05:16:33.742Z,69.64
2019-04-26T05:19:54.910Z,68.94
2019-04-26T05:22:58.660Z,70.12
2019-04-26T05:27:01.071Z,69.82
2019-04-26T05:30:56.132Z,69.84
2019-04-26T05:34:11.226Z,69.77
2019-04-26T05:37:26.744Z,69.87
2019-04-26T05:40:17.319Z,69.87
2019-04-26T05:43:53.920Z,70.81
2019-04-26T05:47:22.762Z,72.26
2019-04-26T05:51:26.146Z,72.78
2019-04-26T05:54:47.750Z,74.60
2019-04-26T05:57:59.066Z,74.42
2019-04-26T06:01:16.831Z,73.91
2019-04-26T06:04:25.369Z,74.62
2019-04-26T06:07:44.348Z,75.70
2019-04-26T06:10:33.243Z,76.47
2019-04-26T06:14:02.349Z,76.50
2019-04-26T06:17:22.041Z,78.39
2019-04-26T06:20:27.072Z,79.48
2019-04-26T06:23:47.400Z,79.25
2019-04-26T06:27:14.536Z,78.25
2019-04-26T06:30:17.104Z,76.77
2019-04-26T06:33:33.145Z,75.83
2019-04-26T06:36:13.554Z,77.71
2019-04-26T06:39:26.599Z,77.79
2019-04-26T06:42:32.683Z,77.52
2019-04-26T06:45:40.571Z,76.85
2019-04-26T06:48:34.848Z,77.47
2019-04-26T06:51:24.748Z,76.96
2019-04-26T06:54:16.178Z,78.17
2019-04-26T06:57:59.992Z,78.13
2019-04-26T07:00:58.989Z,77.50
2019-04-26T07:04:00.628Z,78.03
2019-04-26T07:06:39.733Z,76.29
2019-04-26T07:09:13.083Z,76.31
2019-04-26T07:12:32.532Z,76.33
2019-04-26T07:15:57.005Z,76.94
2019-04-26T07:19:06.173Z,77.00
2019-04-26T07:22:35.189Z,76.65
2019-04-26T07:26:11.331Z,75.81
2019-04-26T07:29:31.543Z,75.74
2019-04-26T07:32:24.514Z,73.46
2019-04-26T07:35:23.829Z,70.04
2019-04-26T07:39:20.721Z,68.06
2019-04-26T07:42:53.478Z,68.38
2019-04-26T07:46:19.323Z,68.22
2019-04-26T07:49:44.783Z,68.14
2019-04-26T07:52:49.096Z,68.04
2019-04-26T07:55:52.433Z,69.20
2019-04-26T07:59:44.228Z,69.16
2019-04-26T08:02:43.605Z,68.83
2019-04-26T08:05:32.739Z,68.67
2019-04-26T08:08:08.967Z,68.40
2019-04-26T08:10:43.625Z,68.76
2019-04-26T08:13:18.833Z,69.42
2019-04-26T08:16:30.525Z,68.99
2019-04-26T08:19:09.029Z,67.57
2019-04-26T08:21:47.997Z,68.50
2019-04-26T08:24:27.904Z,68.80
2019-04-26T08:27:23.993Z,68.70
2019-04-26T08:30:10.117Z,65.56
2019-04-26T08:32:47.366Z,65.42
2019-04-26T08:35:29.060Z,65.35
2019-04-26T08:38:16.041Z,66.01
2019-04-26T08:40:45.239Z,66.62
2019-04-26T08:43:37.247Z,66.64
2019-04-26T08:46:20.714Z,66.37
2019-04-26T08:49:11.207Z,66.83
2019-04-26T08:51:45.734Z,67.16
2019-04-26T08:54:24.894Z,67.87
2019-04-26T08:57:09.713Z,67.98
2019-04-26T08:59:46.636Z,68.87
2019-04-26T09:02:40.435Z,69.13
2019-04-26T09:05:28.148Z,68.49
2019-04-26T09:08:03.965Z,68.17
2019-04-26T09:10:43.295Z,68.12
2019-04-26T09:13:17.157Z,68.97
2019-04-26T09:16:19.474Z,68.29
2019-04-26T09:18:54.161Z,68.45
2019-04-26T09:21:33.702Z,67.04
2019-04-26T09:24:25.112Z,66.42
2019-04-26T09:27:00.472Z,65.55
2019-04-26T09:30:04.993Z,64.46
2019-04-26T09:32:42.012Z,63.97
2019-04-26T09:35:15.304Z,64.53
2019-04-26T09:37:45.947Z,64.80
2019-04-26T09:40:21.523Z,65.07
2019-04-26T09:43:15.068Z,65.13
2019-04-26T09:46:15.560Z,64.68
2019-04-26T09:48:56.158Z,65.42
2019-04-26T09:51:26.954Z,64.46
2019-04-26T09:53:57.679Z,63.94
2019-04-26T09:56:29.176Z,64.19
2019-04-26T09:59:05.202Z,63.78
2019-04-26T10:01:34.641Z,63.12
2019-04-26T10:04:05.118Z,62.79
2019-04-26T10:06:35.871Z,62.92
2019-04-26T10:09:12.855Z,63.15
2019-04-26T10:11:48.279Z,62.09
2019-04-26T10:14:26.344Z,62.54
2019-04-26T10:17:25.319Z,62.51
2019-04-26T10:19:57.584Z,65.54
2019-04-26T10:22:31.067Z,65.67
2019-04-26T10:25:08.083Z,65.61
2019-04-26T10:27:40.283Z,65.30
2019-04-26T10:30:10.826Z,65.95
2019-04-26T10:32:41.369Z,66.14
2019-04-26T10:35:13.434Z,66.34
2019-04-26T10:37:47.965Z,65.86
2019-04-26T10:40:17.689Z,66.46
2019-04-26T10:42:48.913Z,66.41
2019-04-26T10:45:19.887Z,66.84
2019-04-26T10:47:51.337Z,66.46
2019-04-26T10:50:22.259Z,66.48
2019-04-26T10:53:02.672Z,66.33
2019-04-26T10:56:01.522Z,66.56
2019-04-26T10:58:49.631Z,66.61
2019-04-26T11:01:22.249Z,66.40
2019-04-26T11:03:52.661Z,66.15
2019-04-26T11:06:27.882Z,66.05
2019-04-26T11:08:57.059Z,66.71
2019-04-26T11:11:27.894Z,66.60
2019-04-26T11:13:59.244Z,66.77
2019-04-26T11:16:29.734Z,66.88
2019-04-26T11:19:01.206Z,66.52
2019-04-26T11:21:34.211Z,66.08
2019-04-26T11:24:04.719Z,66.72
2019-04-26T11:26:36.292Z,66.33
2019-04-26T11:29:06.967Z,66.88
2019-04-26T11:31:37.554Z,66.86
2019-04-26T11:34:08.342Z,66.62
2019-04-26T11:36:41.798Z,66.64
2019-04-26T11:39:13.544Z,66.46
2019-04-26T11:41:44.922Z,66.75
2019-04-26T11:44:15.477Z,66.40
2019-04-26T11:46:46.350Z,66.15
2019-04-26T11:49:16.820Z,64.74
2019-04-26T11:51:50.204Z,64.53
2019-04-26T11:54:22.223Z,63.79
2019-04-26T11:56:54.518Z,64.50
2019-04-26T11:59:27.120Z,65.51
2019-04-26T12:01:57.440Z,65.56
2019-04-26T12:04:49.595Z,64.87
2019-04-26T12:07:24.289Z,65.28
2019-04-26T12:09:56.265Z,65.83
2019-04-26T12:12:27.687Z,66.16
2019-04-26T12:14:58.250Z,66.85
2019-04-26T12:17:31.141Z,66.09
2019-04-26T12:20:01.163Z,66.74
2019-04-26T12:22:31.668Z,66.26
2019-04-26T12:25:03.322Z,66.72
2019-04-26T12:27:34.544Z,66.27
2019-04-26T12:30:05.407Z,65.89
2019-04-26T12:32:36.124Z,65.38
2019-04-26T12:35:06.683Z,65.61
2019-04-26T12:37:37.275Z,64.50
2019-04-26T12:40:11.357Z,65.25
2019-04-26T12:42:43.477Z,65.07
2019-04-26T12:45:38.533Z,65.16
2019-04-26T12:48:12.308Z,65.27
2019-04-26T12:50:43.339Z,65.74
2019-04-26T12:53:13.951Z,65.56
2019-04-26T12:55:44.572Z,64.82
2019-04-26T12:58:15.441Z,64.65
2019-04-26T13:00:53.745Z,63.55
2019-04-26T13:03:20.576Z,63.44
2019-04-26T13:05:57.717Z,62.70
2019-04-26T13:08:23.587Z,62.13
2019-04-26T13:11:28.314Z,62.35
2019-04-26T13:14:03.049Z,62.43
2019-04-26T13:16:49.461Z,63.52
2019-04-26T13:19:21.053Z,63.99
2019-04-26T13:21:51.684Z,64.70
2019-04-26T13:24:22.234Z,64.60
2019-04-26T13:26:52.969Z,65.66
2019-04-26T13:29:23.537Z,65.90
2019-04-26T13:31:54.057Z,65.91
2019-04-26T13:34:24.623Z,64.97
2019-04-26T13:36:55.169Z,64.02
2019-04-26T13:39:25.707Z,62.52
2019-04-26T13:42:02.948Z,61.99
2019-04-26T13:44:46.389Z,62.00
2019-04-26T13:47:35.896Z,62.04
2019-04-26T13:50:29.253Z,61.98
2019-04-26T13:52:59.825Z,62.76
2019-04-26T13:55:30.531Z,62.96
2019-04-26T13:58:01.160Z,63.12
2019-04-26T14:00:33.016Z,64.36
2019-04-26T14:03:03.569Z,64.00
2019-04-26T14:05:34.123Z,63.86
2019-04-26T14:08:04.833Z,63.05
2019-04-26T14:10:35.726Z,62.68
2019-04-26T14:13:06.294Z,63.31
2019-04-26T14:15:39.496Z,62.88
2019-04-26T14:18:09.411Z,62.91
2019-04-26T14:20:39.933Z,62.32
2019-04-26T14:23:35.259Z,62.53
2019-04-26T14:26:08.837Z,63.04
2019-04-26T14:28:41.880Z,63.41
2019-04-26T14:31:12.372Z,64.26
2019-04-26T14:33:44.069Z,65.06
2019-04-26T14:36:18.050Z,65.30
2019-04-26T14:38:46.934Z,66.11
2019-04-26T14:41:21.807Z,67.24
2019-04-26T14:43:52.596Z,68.32
2019-04-26T14:46:23.016Z,69.06
2019-04-26T14:49:01.430Z,68.90
2019-04-26T14:51:26.114Z,68.88
2019-04-26T14:53:56.661Z,67.80
2019-04-26T14:56:29.436Z,66.86
2019-04-26T14:59:01.702Z,67.15
2019-04-26T15:01:45.201Z,67.61
2019-04-26T15:04:33.377Z,68.50
2019-04-26T15:07:05.726Z,67.14
2019-04-26T15:09:36.698Z,67.12
2019-04-26T15:12:07.609Z,65.11
2019-04-26T15:14:39.749Z,63.48
2019-04-26T15:17:12.280Z,62.67
2019-04-26T15:19:45.862Z,61.16
2019-04-26T15:22:15.065Z,58.24
2019-04-26T15:24:45.621Z,58.11
2019-04-26T15:27:16.201Z,56.17
2019-04-26T15:29:46.743Z,52.73
2019-04-26T15:32:17.480Z,54.54
2019-04-26T15:34:48.052Z,55.45
2019-04-26T15:37:20.309Z,53.40
2019-04-26T15:40:09.900Z,54.29
2019-04-26T15:42:58.882Z,58.05
2019-04-26T15:45:35.918Z,59.72
2019-04-26T15:48:39.037Z,58.21
2019-04-26T15:51:09.632Z,57.69
2019-04-26T15:53:43.450Z,58.72
2019-04-26T15:56:16.271Z,59.47
2019-04-26T15:58:48.957Z,61.32
2019-04-26T16:01:16.926Z,61.70
2019-04-26T16:03:50.231Z,61.37
2019-04-26T16:06:20.861Z,62.19
2019-04-26T16:08:52.154Z,62.47
2019-04-26T16:11:22.781Z,62.15
2019-04-26T16:13:55.453Z,62.98
2019-04-26T16:16:29.197Z,62.14
2019-04-26T16:18:57.891Z,61.79
2019-04-26T16:21:28.701Z,62.50
2019-04-26T16:23:59.314Z,62.57
2019-04-26T16:26:29.896Z,62.67
2019-04-26T16:29:19.779Z,62.88
2019-04-26T16:32:08.245Z,63.24
2019-04-26T16:34:41.468Z,63.30
2019-04-26T16:37:16.574Z,62.89
2019-04-26T16:39:48.385Z,62.83
2019-04-26T16:42:16.496Z,62.69
2019-04-26T16:44:47.059Z,62.83
2019-04-26T16:47:17.688Z,62.73
2019-04-26T16:49:48.196Z,62.95
2019-04-26T16:52:18.791Z,62.95
2019-04-26T16:54:49.431Z,63.28
2019-04-26T16:57:20.157Z,63.63
2019-04-26T16:59:57.032Z,62.89
2019-04-26T17:04:55.302Z,62.15
2019-04-26T17:07:27.380Z,62.00
2019-04-26T17:09:51.041Z,62.16
2019-04-26T17:09:59.616Z,62.60
2019-04-26T17:12:30.542Z,62.36
2019-04-26T17:15:01.040Z,62.95
2019-04-26T17:17:33.110Z,63.17
2019-04-26T17:20:06.696Z,63.11
2019-04-26T17:23:00.783Z,63.83
2019-04-26T17:25:45.421Z,64.08
2019-04-26T17:28:18.083Z,63.82
2019-04-26T17:30:48.369Z,64.13
2019-04-26T17:33:23.555Z,64.58
2019-04-26T17:35:51.229Z,64.69
2019-04-26T17:38:22.488Z,65.43
2019-04-26T17:40:53.127Z,65.68
2019-04-26T17:43:23.718Z,66.62
2019-04-26T17:45:54.214Z,67.74
2019-04-26T17:48:24.774Z,69.25
2019-04-26T17:50:55.367Z,70.72
2019-04-26T17:53:31.168Z,72.69
2019-04-26T17:55:58.538Z,74.23
2019-04-26T17:58:33.724Z,76.02
2019-04-26T18:01:03.915Z,76.38
2019-04-26T18:03:34.485Z,77.36
2019-04-26T18:06:05.128Z,77.69
2019-04-26T18:08:55.265Z,78.24
2019-04-26T18:11:26.085Z,79.14
2019-04-26T18:13:56.616Z,79.30
2019-04-26T18:16:29.488Z,80.02
2019-04-26T18:19:31.360Z,80.36
2019-04-26T18:22:23.146Z,80.42
2019-04-26T18:24:53.810Z,80.44
2019-04-26T18:27:24.346Z,80.66
2019-04-26T18:29:54.961Z,81.01
2019-04-26T18:32:25.554Z,81.06
2019-04-26T18:34:56.132Z,81.67
2019-04-26T18:37:26.758Z,81.79
2019-04-26T18:40:00.943Z,82.39
2019-04-26T18:42:29.602Z,82.40
2019-04-26T18:45:00.215Z,82.62
2019-04-26T18:47:35.764Z,82.72
2019-04-26T18:50:07.435Z,82.94
2019-04-26T18:52:42.273Z,83.91
2019-04-26T18:55:29.020Z,84.29
2019-04-26T18:58:01.464Z,85.17
2019-04-26T19:00:34.247Z,85.64
2019-04-26T19:03:05.272Z,86.22
2019-04-26T19:05:36.028Z,86.52
2019-04-26T19:08:07.557Z,87.08
2019-04-26T19:10:38.941Z,86.83
2019-04-26T19:13:24.491Z,87.00
2019-04-26T19:16:03.675Z,87.35
2019-04-26T19:18:58.863Z,87.18
2019-04-26T19:21:41.672Z,85.95
2019-04-26T19:24:19.782Z,86.53
2019-04-26T19:26:49.675Z,86.34
2019-04-26T19:29:18.675Z,86.86
2019-04-26T19:31:49.166Z,86.78
2019-04-26T19:34:19.754Z,86.96
2019-04-26T19:36:50.416Z,87.08
2019-04-26T19:39:30.425Z,87.36
2019-04-26T19:41:57.626Z,87.28
2019-04-26T19:44:25.643Z,87.46
2019-04-26T19:47:27.306Z,87.73
2019-04-26T19:50:09.791Z,88.00
2019-04-26T19:52:58.994Z,88.16
2019-04-26T19:55:55.003Z,88.25
2019-04-26T19:58:28.135Z,88.50
2019-04-26T20:00:59.513Z,88.75
2019-04-26T20:03:30.060Z,89.16
2019-04-26T20:06:00.646Z,89.28
2019-04-26T20:08:35.478Z,89.02
2019-04-26T20:11:03.518Z,89.17
2019-04-26T20:13:34.083Z,88.94
2019-04-26T20:16:05.985Z,89.22
2019-04-26T20:18:38.947Z,89.35
2019-04-26T20:21:12.607Z,89.32
2019-04-26T20:23:43.795Z,89.48
2019-04-26T20:26:14.011Z,89.43
2019-04-26T20:28:44.539Z,89.57
2019-04-26T20:31:31.385Z,89.58
2019-04-26T20:34:05.524Z,89.58
2019-04-26T20:36:40.770Z,89.81
2019-04-26T20:39:08.492Z,89.82
2019-04-26T20:41:39.082Z,89.76
2019-04-26T20:44:10.246Z,89.96
2019-04-26T20:46:42.621Z,90.02
2019-04-26T20:49:13.333Z,89.85
2019-04-26T20:51:46.355Z,89.79
2019-04-26T20:54:17.391Z,89.62
2019-04-26T20:56:52.623Z,89.93
2019-04-26T20:59:21.984Z,90.00
2019-04-26T21:02:03.317Z,89.74
2019-04-26T21:04:36.854Z,90.03
2019-04-26T21:06:57.294Z,90.51
2019-04-26T21:09:27.929Z,90.90
2019-04-26T21:11:58.568Z,90.60
2019-04-26T21:14:29.110Z,90.91
2019-04-26T21:16:59.624Z,91.21
2019-04-26T21:19:32.736Z,91.24
2019-04-26T21:22:02.691Z,91.27
2019-04-26T21:24:36.897Z,91.34
2019-04-26T21:27:35.567Z,91.45
2019-04-26T21:30:29.434Z,91.14
2019-04-26T21:33:35.821Z,91.47
2019-04-26T21:36:16.043Z,91.88
2019-04-26T21:39:11.521Z,92.21
2019-04-26T21:41:46.754Z,92.35
2019-04-26T21:44:15.859Z,92.26
2019-04-26T21:46:49.713Z,92.22
2019-04-26T21:49:20.751Z,92.48
2019-04-26T21:51:52.639Z,92.30
2019-04-26T21:54:24.874Z,92.67
2019-04-26T21:56:55.787Z,92.33
2019-04-26T21:59:26.292Z,92.16
2019-04-26T22:01:59.169Z,92.32
2019-04-26T22:04:34.107Z,92.56
2019-04-26T22:07:06.347Z,92.66
2019-04-26T22:09:52.785Z,92.83
2019-04-26T22:12:27.332Z,92.65
2019-04-26T22:15:29.631Z,92.82
2019-04-26T22:18:03.279Z,92.87
2019-04-26T22:20:38.409Z,93.01
2019-04-26T22:23:33.940Z,93.11
2019-04-26T22:26:08.378Z,92.70
2019-04-26T22:28:37.631Z,92.25
2019-04-26T22:31:08.754Z,92.34
2019-04-26T22:33:39.576Z,92.62
2019-04-26T22:36:10.152Z,92.84
2019-04-26T22:38:40.740Z,92.99
2019-04-26T22:41:11.269Z,93.01
2019-04-26T22:44:05.442Z,92.86
2019-04-26T22:46:58.863Z,93.09
2019-04-26T22:49:27.171Z,93.00
2019-04-26T22:51:57.698Z,93.24
2019-04-26T22:54:28.220Z,93.08
2019-04-26T22:56:58.769Z,93.34
2019-04-26T22:59:29.325Z,93.39
2019-04-26T23:01:59.877Z,93.39
2019-04-26T23:04:30.687Z,93.38
2019-04-26T23:07:03.423Z,93.37
2019-04-26T23:09:33.701Z,93.67
2019-04-26T23:12:28.130Z,93.78
2019-04-26T23:15:15.965Z,93.76
2019-04-26T23:18:11.595Z,93.76
2019-04-26T23:20:48.813Z,93.66
2019-04-26T23:23:19.363Z,93.52
2019-04-26T23:25:49.849Z,93.67
2019-04-26T23:28:20.402Z,93.82
2019-04-26T23:30:50.971Z,93.91
2019-04-26T23:33:21.557Z,93.89
2019-04-26T23:35:53.004Z,93.72
2019-04-26T23:38:23.862Z,93.78
2019-04-26T23:40:57.235Z,93.95
2019-04-26T23:43:26.733Z,93.87
2019-04-26T23:45:57.288Z,93.66
2019-04-26T23:48:27.785Z,93.82
2019-04-26T23:50:59.850Z,93.85
2019-04-26T23:53:30.577Z,93.90
2019-04-26T23:56:01.112Z,93.67
2019-04-26T23:58:31.656Z,93.75
